sensor_id;sensor_type;location;lat;lon;timestamp;pressure;altitude;pressure_sealevel;temperature;humidity
20630;BME280;17386;43.846;25.950;2023-03-14T00:02:08;101641.88;;;6.63;67.75
20630;BME280;17386;43.846;25.950;2023-03-14T00:04:34;101641.84;;;6.67;66.99
20630;BME280;17386;43.846;25.950;2023-03-14T00:06:59;101633.91;;;6.73;66.76
20630;BME280;17386;43.846;25.950;2023-03-14T00:09:25;101637.38;;;6.80;66.67
20630;BME280;17386;43.846;25.950;2023-03-14T00:11:52;101632.16;;;6.69;65.75
20630;BME280;17386;43.846;25.950;2023-03-14T00:14:18;101635.69;;;6.70;64.92
20630;BME280;17386;43.846;25.950;2023-03-14T00:16:46;101632.97;;;6.77;64.80
20630;BME280;17386;43.846;25.950;2023-03-14T00:19:12;101632.09;;;6.78;64.69
20630;BME280;17386;43.846;25.950;2023-03-14T00:21:37;101625.94;;;6.79;64.56
20630;BME280;17386;43.846;25.950;2023-03-14T00:24:03;101624.13;;;6.89;63.78
20630;BME280;17386;43.846;25.950;2023-03-14T00:26:28;101617.09;;;6.87;63.93
20630;BME280;17386;43.846;25.950;2023-03-14T00:28:54;101604.75;;;6.90;63.56
20630;BME280;17386;43.846;25.950;2023-03-14T00:31:20;101612.66;;;6.92;63.76
20630;BME280;17386;43.846;25.950;2023-03-14T00:33:46;101608.25;;;6.94;63.34
20630;BME280;17386;43.846;25.950;2023-03-14T00:36:13;101607.38;;;6.92;63.20
20630;BME280;17386;43.846;25.950;2023-03-14T00:38:40;101601.25;;;6.88;63.24
20630;BME280;17386;43.846;25.950;2023-03-14T00:41:11;101597.72;;;6.88;63.47
20630;BME280;17386;43.846;25.950;2023-03-14T00:43:37;101589.81;;;6.84;63.10
20630;BME280;17386;43.846;25.950;2023-03-14T00:46:03;101582.72;;;6.91;62.95
20630;BME280;17386;43.846;25.950;2023-03-14T00:48:28;101584.50;;;6.88;62.81
20630;BME280;17386;43.846;25.950;2023-03-14T00:50:54;101577.44;;;6.90;62.97
20630;BME280;17386;43.846;25.950;2023-03-14T00:53:19;101576.59;;;6.88;62.60
20630;BME280;17386;43.846;25.950;2023-03-14T00:55:45;101578.44;;;6.72;63.09
20630;BME280;17386;43.846;25.950;2023-03-14T00:58:12;101578.44;;;6.72;64.18
20630;BME280;17386;43.846;25.950;2023-03-14T01:00:39;101566.16;;;6.68;67.81
20630;BME280;17386;43.846;25.950;2023-03-14T01:03:06;101565.50;;;6.29;70.86
20630;BME280;17386;43.846;25.950;2023-03-14T01:05:31;101551.38;;;6.36;70.70
20630;BME280;17386;43.846;25.950;2023-03-14T01:07:57;101561.06;;;6.39;69.50
20630;BME280;17386;43.846;25.950;2023-03-14T01:10:23;101548.72;;;6.41;68.32
20630;BME280;17386;43.846;25.950;2023-03-14T01:12:48;101547.78;;;6.49;66.59
20630;BME280;17386;43.846;25.950;2023-03-14T01:15:14;101552.16;;;6.53;64.91
20630;BME280;17386;43.846;25.950;2023-03-14T01:17:40;101546.88;;;6.53;64.37
20630;BME280;17386;43.846;25.950;2023-03-14T01:20:07;101542.44;;;6.57;64.79
20630;BME280;17386;43.846;25.950;2023-03-14T01:22:37;101546.88;;;6.53;64.75
20630;BME280;17386;43.846;25.950;2023-03-14T01:25:06;101548.75;;;6.36;67.69
20630;BME280;17386;43.846;25.950;2023-03-14T01:27:32;101552.41;;;6.01;70.10
20630;BME280;17386;43.846;25.950;2023-03-14T01:29:58;101556.81;;;5.89;71.33
20630;BME280;17386;43.846;25.950;2023-03-14T01:32:24;101556.84;;;5.98;70.87
20630;BME280;17386;43.846;25.950;2023-03-14T01:34:49;101555.97;;;5.97;71.31
20630;BME280;17386;43.846;25.950;2023-03-14T01:37:14;101554.19;;;5.89;72.14
20630;BME280;17386;43.846;25.950;2023-03-14T01:39:40;101555.97;;;5.94;72.15
20630;BME280;17386;43.846;25.950;2023-03-14T01:42:05;101555.97;;;5.97;72.16
20630;BME280;17386;43.846;25.950;2023-03-14T01:44:57;101539.28;;;5.85;73.04
20630;BME280;17386;43.846;25.950;2023-03-14T01:47:22;101544.56;;;5.85;73.01
20630;BME280;17386;43.846;25.950;2023-03-14T01:50:08;101541.00;;;5.83;73.27
20630;BME280;17386;43.846;25.950;2023-03-14T01:52:47;101534.88;;;5.84;73.57
20630;BME280;17386;43.846;25.950;2023-03-14T01:55:16;101529.59;;;5.85;73.43
20630;BME280;17386;43.846;25.950;2023-03-14T01:57:51;101539.31;;;5.72;73.94
20630;BME280;17386;43.846;25.950;2023-03-14T02:00:21;101537.56;;;5.67;74.47
20630;BME280;17386;43.846;25.950;2023-03-14T02:02:49;101536.69;;;5.60;74.63
20630;BME280;17386;43.846;25.950;2023-03-14T02:05:18;101540.22;;;5.59;75.11
20630;BME280;17386;43.846;25.950;2023-03-14T02:07:52;101544.63;;;5.63;75.92
20630;BME280;17386;43.846;25.950;2023-03-14T02:10:21;101537.56;;;5.62;77.08
20630;BME280;17386;43.846;25.950;2023-03-14T02:12:48;101546.41;;;5.46;78.92
20630;BME280;17386;43.846;25.950;2023-03-14T02:15:14;101542.91;;;5.38;79.34
20630;BME280;17386;43.846;25.950;2023-03-14T02:17:42;101556.09;;;5.36;80.08
20630;BME280;17386;43.846;25.950;2023-03-14T02:20:34;101555.19;;;5.42;81.21
20630;BME280;17386;43.846;25.950;2023-03-14T02:23:03;101552.56;;;5.31;83.62
20630;BME280;17386;43.846;25.950;2023-03-14T02:26:03;101559.59;;;5.28;84.59
20630;BME280;17386;43.846;25.950;2023-03-14T02:28:31;101549.94;;;5.36;85.26
20630;BME280;17386;43.846;25.950;2023-03-14T02:30:56;101557.81;;;5.40;85.21
20630;BME280;17386;43.846;25.950;2023-03-14T02:33:22;101552.56;;;5.39;85.74
20630;BME280;17386;43.846;25.950;2023-03-14T02:36:25;101549.06;;;4.94;88.21
20630;BME280;17386;43.846;25.950;2023-03-14T02:38:55;101549.97;;;4.96;85.57
20630;BME280;17386;43.846;25.950;2023-03-14T02:41:21;101551.72;;;4.97;86.03
20630;BME280;17386;43.846;25.950;2023-03-14T02:43:47;101559.59;;;4.94;86.74
20630;BME280;17386;43.846;25.950;2023-03-14T02:46:14;101563.09;;;4.84;84.01
20630;BME280;17386;43.846;25.950;2023-03-14T02:48:53;101564.84;;;4.77;82.66
20630;BME280;17386;43.846;25.950;2023-03-14T02:51:21;101573.66;;;4.81;81.92
20630;BME280;17386;43.846;25.950;2023-03-14T02:53:46;101566.63;;;4.83;81.18
20630;BME280;17386;43.846;25.950;2023-03-14T02:56:12;101571.91;;;4.87;80.48
20630;BME280;17386;43.846;25.950;2023-03-14T02:58:37;101569.25;;;4.84;80.35
20630;BME280;17386;43.846;25.950;2023-03-14T03:01:03;101562.22;;;4.83;80.67
20630;BME280;17386;43.846;25.950;2023-03-14T03:03:29;101561.38;;;4.89;80.61
20630;BME280;17386;43.846;25.950;2023-03-14T03:05:55;101555.19;;;4.93;80.38
20630;BME280;17386;43.846;25.950;2023-03-14T03:08:23;101548.22;;;4.95;80.45
20630;BME280;17386;43.846;25.950;2023-03-14T03:10:50;101549.97;;;4.94;80.20
20630;BME280;17386;43.846;25.950;2023-03-14T03:13:15;101542.88;;;4.66;81.03
20630;BME280;17386;43.846;25.950;2023-03-14T03:15:41;101545.56;;;4.75;80.70
20630;BME280;17386;43.846;25.950;2023-03-14T03:18:06;101548.16;;;4.80;80.98
20630;BME280;17386;43.846;25.950;2023-03-14T03:20:32;101553.47;;;4.87;80.67
20630;BME280;17386;43.846;25.950;2023-03-14T03:22:59;101559.59;;;4.94;80.36
20630;BME280;17386;43.846;25.950;2023-03-14T03:25:25;101550.84;;;4.87;81.81
20630;BME280;17386;43.846;25.950;2023-03-14T03:27:50;101549.06;;;4.86;81.82
20630;BME280;17386;43.846;25.950;2023-03-14T03:30:16;101553.47;;;4.89;81.43
20630;BME280;17386;43.846;25.950;2023-03-14T03:32:41;101555.22;;;4.90;81.28
20630;BME280;17386;43.846;25.950;2023-03-14T03:35:07;101543.78;;;4.92;82.42
20630;BME280;17386;43.846;25.950;2023-03-14T03:37:33;101544.69;;;4.94;83.04
20630;BME280;17386;43.846;25.950;2023-03-14T03:39:58;101530.66;;;4.89;83.59
20630;BME280;17386;43.846;25.950;2023-03-14T03:42:26;101520.13;;;4.88;83.69
20630;BME280;17386;43.846;25.950;2023-03-14T03:44:51;101511.31;;;4.86;83.85
20630;BME280;17386;43.846;25.950;2023-03-14T03:47:17;101498.16;;;4.84;83.70
20630;BME280;17386;43.846;25.950;2023-03-14T03:49:42;101515.69;;;4.79;82.99
20630;BME280;17386;43.846;25.950;2023-03-14T03:52:07;101503.41;;;4.72;81.85
20630;BME280;17386;43.846;25.950;2023-03-14T03:54:34;101510.47;;;4.76;80.88
20630;BME280;17386;43.846;25.950;2023-03-14T03:57:00;101506.94;;;4.73;80.71
20630;BME280;17386;43.846;25.950;2023-03-14T03:59:25;101506.06;;;4.78;80.68
20630;BME280;17386;43.846;25.950;2023-03-14T04:01:50;101509.56;;;4.83;81.17
20630;BME280;17386;43.846;25.950;2023-03-14T04:04:16;101496.41;;;4.68;85.00
20630;BME280;17386;43.846;25.950;2023-03-14T04:06:41;101483.25;;;4.70;86.05
20630;BME280;17386;43.846;25.950;2023-03-14T04:09:08;101478.84;;;4.64;88.61
20630;BME280;17386;43.846;25.950;2023-03-14T04:11:34;101487.63;;;4.61;89.70
20630;BME280;17386;43.846;25.950;2023-03-14T04:13:59;101483.22;;;4.59;93.15
20630;BME280;17386;43.846;25.950;2023-03-14T04:16:25;101472.69;;;4.53;94.54
20630;BME280;17386;43.846;25.950;2023-03-14T04:18:51;101471.84;;;4.55;94.80
20630;BME280;17386;43.846;25.950;2023-03-14T04:21:17;101470.97;;;4.55;94.37
20630;BME280;17386;43.846;25.950;2023-03-14T04:23:43;101470.09;;;4.54;93.52
20630;BME280;17386;43.846;25.950;2023-03-14T04:26:09;101457.78;;;4.52;92.50
20630;BME280;17386;43.846;25.950;2023-03-14T04:28:34;101456.06;;;4.40;91.82
20630;BME280;17386;43.846;25.950;2023-03-14T04:31:13;101449.91;;;4.52;91.56
20630;BME280;17386;43.846;25.950;2023-03-14T04:33:40;101451.66;;;4.57;90.34
20630;BME280;17386;43.846;25.950;2023-03-14T04:36:06;101456.94;;;4.63;87.06
20630;BME280;17386;43.846;25.950;2023-03-14T04:38:32;101447.28;;;4.58;85.28
20630;BME280;17386;43.846;25.950;2023-03-14T04:40:57;101437.63;;;4.57;88.30
20630;BME280;17386;43.846;25.950;2023-03-14T04:43:24;101449.03;;;4.56;88.77
20630;BME280;17386;43.846;25.950;2023-03-14T04:45:51;101437.59;;;4.38;90.23
20630;BME280;17386;43.846;25.950;2023-03-14T04:48:16;101449.91;;;4.41;90.90
20630;BME280;17386;43.846;25.950;2023-03-14T04:50:42;101449.00;;;4.36;90.50
20630;BME280;17386;43.846;25.950;2023-03-14T04:53:07;101455.16;;;4.38;88.39
20630;BME280;17386;43.846;25.950;2023-03-14T04:55:33;101455.16;;;4.29;89.29
20630;BME280;17386;43.846;25.950;2023-03-14T04:57:59;101456.00;;;4.23;86.43
20630;BME280;17386;43.846;25.950;2023-03-14T05:00:25;101461.31;;;4.32;86.20
20630;BME280;17386;43.846;25.950;2023-03-14T05:02:50;101469.19;;;4.37;82.52
20630;BME280;17386;43.846;25.950;2023-03-14T05:05:16;101475.31;;;4.39;80.59
20630;BME280;17386;43.846;25.950;2023-03-14T05:07:41;101480.56;;;4.39;76.24
20630;BME280;17386;43.846;25.950;2023-03-14T05:10:08;101488.50;;;4.56;75.40
20630;BME280;17386;43.846;25.950;2023-03-14T05:12:33;101495.53;;;4.68;72.07
20630;BME280;17386;43.846;25.950;2023-03-14T05:14:59;101500.81;;;4.69;71.76
20630;BME280;17386;43.846;25.950;2023-03-14T05:17:24;101497.28;;;4.64;71.90
20630;BME280;17386;43.846;25.950;2023-03-14T05:19:49;101510.47;;;4.69;76.69
20630;BME280;17386;43.846;25.950;2023-03-14T05:22:15;101504.31;;;4.74;74.53
20630;BME280;17386;43.846;25.950;2023-03-14T05:24:40;101494.66;;;4.70;73.86
20630;BME280;17386;43.846;25.950;2023-03-14T05:27:06;101496.38;;;4.66;73.88
20630;BME280;17386;43.846;25.950;2023-03-14T05:29:31;101483.25;;;4.76;74.17
20630;BME280;17386;43.846;25.950;2023-03-14T05:31:57;101477.97;;;4.80;73.77
20630;BME280;17386;43.846;25.950;2023-03-14T05:34:22;101475.34;;;4.83;73.77
20630;BME280;17386;43.846;25.950;2023-03-14T05:36:47;101476.22;;;4.84;73.58
20630;BME280;17386;43.846;25.950;2023-03-14T05:39:13;101481.47;;;4.91;72.87
20630;BME280;17386;43.846;25.950;2023-03-14T05:41:38;101476.22;;;4.90;71.41
20630;BME280;17386;43.846;25.950;2023-03-14T05:44:04;101471.84;;;5.01;70.92
20630;BME280;17386;43.846;25.950;2023-03-14T05:46:29;101470.03;;;5.14;70.71
20630;BME280;17386;43.846;25.950;2023-03-14T05:48:57;101468.28;;;5.22;70.76
20630;BME280;17386;43.846;25.950;2023-03-14T05:51:22;101470.91;;;5.24;69.56
20630;BME280;17386;43.846;25.950;2023-03-14T05:53:47;101475.28;;;5.31;69.20
20630;BME280;17386;43.846;25.950;2023-03-14T05:56:13;101463.84;;;5.35;69.23
20630;BME280;17386;43.846;25.950;2023-03-14T05:58:38;101454.19;;;5.40;69.48
20630;BME280;17386;43.846;25.950;2023-03-14T06:01:05;101456.78;;;5.52;68.23
20630;BME280;17386;43.846;25.950;2023-03-14T06:03:31;101455.91;;;5.56;68.03
20630;BME280;17386;43.846;25.950;2023-03-14T06:05:57;101462.03;;;5.58;68.30
20630;BME280;17386;43.846;25.950;2023-03-14T06:08:22;101452.34;;;5.65;67.81
20630;BME280;17386;43.846;25.950;2023-03-14T06:10:48;101461.94;;;5.75;67.68
20630;BME280;17386;43.846;25.950;2023-03-14T06:13:13;101454.91;;;5.75;69.58
20630;BME280;17386;43.846;25.950;2023-03-14T06:15:40;101452.34;;;5.65;77.32
20630;BME280;17386;43.846;25.950;2023-03-14T06:18:06;101450.56;;;5.62;79.29
20630;BME280;17386;43.846;25.950;2023-03-14T06:20:31;101453.22;;;5.70;79.39
20630;BME280;17386;43.846;25.950;2023-03-14T06:22:58;101429.56;;;5.52;81.65
20630;BME280;17386;43.846;25.950;2023-03-14T06:25:23;101454.94;;;5.77;82.95
20630;BME280;17386;43.846;25.950;2023-03-14T06:27:49;101451.41;;;5.78;82.78
20630;BME280;17386;43.846;25.950;2023-03-14T06:30:14;101452.22;;;5.88;81.90
20630;BME280;17386;43.846;25.950;2023-03-14T06:32:40;101445.22;;;5.93;81.00
20630;BME280;17386;43.846;25.950;2023-03-14T06:35:05;101451.25;;;6.13;80.27
20630;BME280;17386;43.846;25.950;2023-03-14T06:37:31;101446.75;;;6.24;78.72
20630;BME280;17386;43.846;25.950;2023-03-14T06:39:56;101459.94;;;6.27;78.23
20630;BME280;17386;43.846;25.950;2023-03-14T06:42:22;101457.47;;;6.01;79.48
20630;BME280;17386;43.846;25.950;2023-03-14T06:44:47;101467.13;;;6.01;79.79
20630;BME280;17386;43.846;25.950;2023-03-14T06:47:13;101473.25;;;6.12;78.96
20630;BME280;17386;43.846;25.950;2023-03-14T06:49:38;101470.50;;;6.29;78.08
20630;BME280;17386;43.846;25.950;2023-03-14T06:52:04;101460.78;;;6.34;77.22
20630;BME280;17386;43.846;25.950;2023-03-14T06:54:29;101465.13;;;6.43;76.13
20630;BME280;17386;43.846;25.950;2023-03-14T06:56:55;101456.19;;;6.57;75.42
20630;BME280;17386;43.846;25.950;2023-03-14T06:59:20;101462.31;;;6.67;75.08
20630;BME280;17386;43.846;25.950;2023-03-14T07:01:46;101458.75;;;6.73;73.94
20630;BME280;17386;43.846;25.950;2023-03-14T07:04:13;101447.09;;;6.95;73.31
20630;BME280;17386;43.846;25.950;2023-03-14T07:06:39;101441.56;;;7.21;72.69
20630;BME280;17386;43.846;25.950;2023-03-14T07:09:05;101433.34;;;7.44;71.16
20630;BME280;17386;43.846;25.950;2023-03-14T07:11:30;101425.13;;;7.67;70.00
20630;BME280;17386;43.846;25.950;2023-03-14T07:13:55;101418.69;;;7.89;68.78
20630;BME280;17386;43.846;25.950;2023-03-14T07:16:21;101420.25;;;8.04;67.06
20630;BME280;17386;43.846;25.950;2023-03-14T07:18:46;101417.63;;;8.01;66.64
20630;BME280;17386;43.846;25.950;2023-03-14T07:21:14;101419.34;;;8.05;65.70
20630;BME280;17386;43.846;25.950;2023-03-14T07:23:39;101414.97;;;8.01;66.52
20630;BME280;17386;43.846;25.950;2023-03-14T07:26:05;101418.28;;;8.15;65.63
20630;BME280;17386;43.846;25.950;2023-03-14T07:28:31;101415.47;;;8.28;64.74
20630;BME280;17386;43.846;25.950;2023-03-14T07:30:56;101407.34;;;8.41;64.56
20630;BME280;17386;43.846;25.950;2023-03-14T07:33:22;101414.25;;;8.52;63.02
20630;BME280;17386;43.846;25.950;2023-03-14T07:35:48;101417.53;;;8.64;60.58
20630;BME280;17386;43.846;25.950;2023-03-14T07:38:14;101415.69;;;8.69;58.29
20630;BME280;17386;43.846;25.950;2023-03-14T07:40:40;101416.34;;;8.82;58.02
20630;BME280;17386;43.846;25.950;2023-03-14T07:43:05;101415.97;;;9.03;56.89
20630;BME280;17386;43.846;25.950;2023-03-14T07:45:31;101414.13;;;9.09;56.92
20630;BME280;17386;43.846;25.950;2023-03-14T07:47:56;101416.69;;;9.13;56.65
20630;BME280;17386;43.846;25.950;2023-03-14T07:50:26;101409.31;;;9.29;55.96
20630;BME280;17386;43.846;25.950;2023-03-14T07:52:52;101406.50;;;9.37;54.99
20630;BME280;17386;43.846;25.950;2023-03-14T07:55:17;101399.88;;;9.57;54.41
20630;BME280;17386;43.846;25.950;2023-03-14T07:57:43;101402.03;;;9.82;54.36
20630;BME280;17386;43.846;25.950;2023-03-14T08:00:08;101402.53;;;9.98;52.61
20630;BME280;17386;43.846;25.950;2023-03-14T08:02:34;101396.09;;;10.09;53.51
20630;BME280;17386;43.846;25.950;2023-03-14T08:05:01;101395.78;;;10.22;51.99
20630;BME280;17386;43.846;25.950;2023-03-14T08:07:26;101392.00;;;10.33;50.79
20630;BME280;17386;43.846;25.950;2023-03-14T08:09:52;101389.53;;;10.26;50.02
20630;BME280;17386;43.846;25.950;2023-03-14T08:12:17;101392.63;;;10.45;50.38
20630;BME280;17386;43.846;25.950;2023-03-14T08:14:43;101378.88;;;10.61;50.24
20630;BME280;17386;43.846;25.950;2023-03-14T08:17:08;101375.97;;;10.72;49.58
20630;BME280;17386;43.846;25.950;2023-03-14T08:19:34;101374.28;;;10.68;49.93
20630;BME280;17386;43.846;25.950;2023-03-14T08:22:18;101378.13;;;10.90;49.63
20630;BME280;17386;43.846;25.950;2023-03-14T08:24:43;101376.88;;;11.04;49.24
20630;BME280;17386;43.846;25.950;2023-03-14T08:27:11;101371.59;;;11.02;48.60
20630;BME280;17386;43.846;25.950;2023-03-14T08:29:39;101366.88;;;11.13;48.43
20630;BME280;17386;43.846;25.950;2023-03-14T08:32:06;101371.81;;;11.27;48.37
20630;BME280;17386;43.846;25.950;2023-03-14T08:34:33;101368.47;;;11.50;47.86
20630;BME280;17386;43.846;25.950;2023-03-14T08:36:58;101367.28;;;11.60;47.18
20630;BME280;17386;43.846;25.950;2023-03-14T08:39:24;101360.59;;;11.76;46.94
20630;BME280;17386;43.846;25.950;2023-03-14T08:41:49;101360.06;;;11.93;46.82
20630;BME280;17386;43.846;25.950;2023-03-14T08:44:15;101357.72;;;12.12;46.25
20630;BME280;17386;43.846;25.950;2023-03-14T08:46:40;101365.03;;;12.05;45.39
20630;BME280;17386;43.846;25.950;2023-03-14T08:49:06;101360.38;;;12.12;44.64
20630;BME280;17386;43.846;25.950;2023-03-14T08:51:31;101348.53;;;12.21;44.87
20630;BME280;17386;43.846;25.950;2023-03-14T08:53:57;101335.44;;;12.41;44.67
20630;BME280;17386;43.846;25.950;2023-03-14T08:56:22;101328.06;;;12.49;44.23
20630;BME280;17386;43.846;25.950;2023-03-14T08:58:47;101322.06;;;12.68;43.69
20630;BME280;17386;43.846;25.950;2023-03-14T09:01:13;101321.06;;;12.72;43.34
20630;BME280;17386;43.846;25.950;2023-03-14T09:03:38;101314.09;;;12.68;42.90
20630;BME280;17386;43.846;25.950;2023-03-14T09:06:05;101308.41;;;13.02;42.77
20630;BME280;17386;43.846;25.950;2023-03-14T09:08:32;101300.69;;;13.43;42.08
20630;BME280;17386;43.846;25.950;2023-03-14T09:10:58;101301.34;;;13.71;40.71
20630;BME280;17386;43.846;25.950;2023-03-14T09:13:24;101286.41;;;13.65;39.82
20630;BME280;17386;43.846;25.950;2023-03-14T09:15:53;101285.53;;;13.66;40.04
20630;BME280;17386;43.846;25.950;2023-03-14T09:18:19;101276.00;;;14.03;39.80
20630;BME280;17386;43.846;25.950;2023-03-14T09:20:45;101275.44;;;14.37;39.22
20630;BME280;17386;43.846;25.950;2023-03-14T09:23:10;101272.75;;;14.59;38.54
20630;BME280;17386;43.846;25.950;2023-03-14T09:25:36;101262.53;;;14.69;37.49
20630;BME280;17386;43.846;25.950;2023-03-14T09:28:01;101265.03;;;14.72;37.44
20630;BME280;17386;43.846;25.950;2023-03-14T09:30:26;101259.88;;;14.88;37.64
20630;BME280;17386;43.846;25.950;2023-03-14T09:32:52;101259.31;;;15.00;37.07
20630;BME280;17386;43.846;25.950;2023-03-14T09:35:17;101257.91;;;15.12;37.07
20630;BME280;17386;43.846;25.950;2023-03-14T09:37:43;101253.22;;;15.17;36.50
20630;BME280;17386;43.846;25.950;2023-03-14T09:40:12;101246.75;;;15.21;36.29
20630;BME280;17386;43.846;25.950;2023-03-14T09:42:39;101242.19;;;15.42;36.03
20630;BME280;17386;43.846;25.950;2023-03-14T09:45:16;101232.16;;;15.83;35.06
20630;BME280;17386;43.846;25.950;2023-03-14T09:47:44;101226.03;;;15.98;34.41
20630;BME280;17386;43.846;25.950;2023-03-14T09:50:15;101221.78;;;16.46;34.57
20630;BME280;17386;43.846;25.950;2023-03-14T09:52:44;101225.69;;;16.91;33.11
20630;BME280;17386;43.846;25.950;2023-03-14T09:55:14;101218.88;;;17.17;32.75
20630;BME280;17386;43.846;25.950;2023-03-14T09:57:41;101207.19;;;17.49;32.24
20630;BME280;17386;43.846;25.950;2023-03-14T10:00:18;101187.97;;;17.57;32.26
20630;BME280;17386;43.846;25.950;2023-03-14T10:02:51;101193.91;;;17.94;31.93
20630;BME280;17386;43.846;25.950;2023-03-14T10:05:20;101182.59;;;17.73;31.59
20630;BME280;17386;43.846;25.950;2023-03-14T10:07:46;101183.47;;;17.26;31.80
20630;BME280;17386;43.846;25.950;2023-03-14T10:10:22;101173.31;;;17.00;32.00
20630;BME280;17386;43.846;25.950;2023-03-14T10:12:56;101162.34;;;17.04;31.80
20630;BME280;17386;43.846;25.950;2023-03-14T10:15:27;101164.00;;;17.22;32.19
20630;BME280;17386;43.846;25.950;2023-03-14T10:17:55;101158.91;;;17.80;31.38
20630;BME280;17386;43.846;25.950;2023-03-14T10:20:36;101165.00;;;18.56;30.62
20630;BME280;17386;43.846;25.950;2023-03-14T10:25:38;101157.06;;;18.69;29.39
20630;BME280;17386;43.846;25.950;2023-03-14T10:28:05;101152.00;;;19.20;28.99
20630;BME280;17386;43.846;25.950;2023-03-14T10:30:44;101144.16;;;19.71;27.84
20630;BME280;17386;43.846;25.950;2023-03-14T10:35:39;101135.56;;;20.04;26.69
20630;BME280;17386;43.846;25.950;2023-03-14T10:38:05;101126.19;;;19.97;26.88
20630;BME280;17386;43.846;25.950;2023-03-14T10:40:33;101122.09;;;20.04;26.38
20630;BME280;17386;43.846;25.950;2023-03-14T10:42:59;101103.13;;;19.92;26.04
20630;BME280;17386;43.846;25.950;2023-03-14T10:45:33;101100.22;;;20.21;26.00
20630;BME280;17386;43.846;25.950;2023-03-14T10:48:13;101097.34;;;19.59;26.52
20630;BME280;17386;43.846;25.950;2023-03-14T10:53:25;101081.31;;;19.83;25.98
20630;BME280;17386;43.846;25.950;2023-03-14T10:55:51;101071.94;;;19.88;26.09
20630;BME280;17386;43.846;25.950;2023-03-14T10:58:28;101060.94;;;20.17;25.72
20630;BME280;17386;43.846;25.950;2023-03-14T11:01:05;101052.84;;;20.55;25.31
20630;BME280;17386;43.846;25.950;2023-03-14T11:03:35;101053.41;;;20.84;25.25
20630;BME280;17386;43.846;25.950;2023-03-14T11:11:30;101038.03;;;20.97;24.46
20630;BME280;17386;43.846;25.950;2023-03-14T11:17:04;101019.19;;;20.72;25.15
20630;BME280;17386;43.846;25.950;2023-03-14T11:28:20;100987.91;;;19.94;24.47
20630;BME280;17386;43.846;25.950;2023-03-14T11:30:54;100975.38;;;20.32;24.53
20630;BME280;17386;43.846;25.950;2023-03-14T11:33:21;100973.25;;;20.85;23.58
20630;BME280;17386;43.846;25.950;2023-03-14T11:35:59;100961.66;;;20.95;23.26
20630;BME280;17386;43.846;25.950;2023-03-14T11:38:32;100953.09;;;21.01;22.83
20630;BME280;17386;43.846;25.950;2023-03-14T11:41:00;100939.19;;;20.71;23.32
20630;BME280;17386;43.846;25.950;2023-03-14T11:43:35;100936.69;;;20.81;23.09
20630;BME280;17386;43.846;25.950;2023-03-14T11:46:17;100921.53;;;20.67;23.40
20630;BME280;17386;43.846;25.950;2023-03-14T11:49:04;100916.63;;;20.35;23.24
20630;BME280;17386;43.846;25.950;2023-03-14T11:56:46;100891.09;;;21.35;21.86
20630;BME280;17386;43.846;25.950;2023-03-14T12:07:47;100857.94;;;22.11;21.24
20630;BME280;17386;43.846;25.950;2023-03-14T12:10:20;100851.88;;;22.30;20.34
20630;BME280;17386;43.846;25.950;2023-03-14T12:12:47;100858.41;;;22.17;20.35
20630;BME280;17386;43.846;25.950;2023-03-14T12:15:21;100856.66;;;22.27;19.80
20630;BME280;17386;43.846;25.950;2023-03-14T12:17:53;100851.50;;;22.56;19.58
20630;BME280;17386;43.846;25.950;2023-03-14T12:20:24;100836.69;;;22.39;19.44
20630;BME280;17386;43.846;25.950;2023-03-14T12:23:02;100832.53;;;22.67;19.40
20630;BME280;17386;43.846;25.950;2023-03-14T12:25:30;100834.19;;;22.79;19.00
20630;BME280;17386;43.846;25.950;2023-03-14T12:30:32;100812.03;;;23.37;17.89
20630;BME280;17386;43.846;25.950;2023-03-14T12:43:34;100807.97;;;25.75;16.18
20630;BME280;17386;43.846;25.950;2023-03-14T12:48:41;100796.81;;;25.68;15.95
20630;BME280;17386;43.846;25.950;2023-03-14T12:51:19;100789.41;;;25.60;15.95
20630;BME280;17386;43.846;25.950;2023-03-14T12:54:13;100793.22;;;25.40;15.76
20630;BME280;17386;43.846;25.950;2023-03-14T13:04:37;100760.38;;;23.38;16.17
20630;BME280;17386;43.846;25.950;2023-03-14T13:07:15;100749.09;;;23.03;15.92
20630;BME280;17386;43.846;25.950;2023-03-14T13:15:31;100746.09;;;21.68;16.57
20630;BME280;17386;43.846;25.950;2023-03-14T13:18:07;100745.91;;;21.37;17.33
20630;BME280;17386;43.846;25.950;2023-03-14T13:20:37;100729.41;;;20.95;17.04
20630;BME280;17386;43.846;25.950;2023-03-14T13:23:04;100731.19;;;20.61;17.38
20630;BME280;17386;43.846;25.950;2023-03-14T13:25:32;100731.47;;;20.34;17.82
20630;BME280;17386;43.846;25.950;2023-03-14T13:28:00;100726.19;;;20.33;18.02
20630;BME280;17386;43.846;25.950;2023-03-14T13:30:28;100727.69;;;20.13;18.19
20630;BME280;17386;43.846;25.950;2023-03-14T13:32:55;100721.25;;;19.91;18.63
20630;BME280;17386;43.846;25.950;2023-03-14T13:35:26;100712.09;;;19.81;18.19
20630;BME280;17386;43.846;25.950;2023-03-14T13:38:01;100713.00;;;19.69;18.63
20630;BME280;17386;43.846;25.950;2023-03-14T13:40:32;100693.53;;;19.53;18.88
20630;BME280;17386;43.846;25.950;2023-03-14T13:43:16;100691.16;;;19.48;19.22
20630;BME280;17386;43.846;25.950;2023-03-14T13:45:56;100679.38;;;19.38;18.56
20630;BME280;17386;43.846;25.950;2023-03-14T13:48:26;100679.94;;;19.30;18.97
20630;BME280;17386;43.846;25.950;2023-03-14T13:50:55;100678.22;;;19.29;19.16
20630;BME280;17386;43.846;25.950;2023-03-14T13:53:21;100672.16;;;19.26;19.55
20630;BME280;17386;43.846;25.950;2023-03-14T13:55:47;100676.25;;;19.31;19.75
20630;BME280;17386;43.846;25.950;2023-03-14T13:58:24;100662.66;;;19.33;19.54